Time;durP1;ratioP1;P1;durP2;ratioP2;P2;SDS_P1;SDS_P2;PMS_P1;PMS_P2;Temp;Humidity;BMP_temperature;BMP_pressure;BME280_temperature;BME280_humidity;BME280_pressure;Samples;Min_cycle;Max_cycle;Signal;HPM_P1;HPM_P2
2021/11/12 00:13:04;;;;;;;39.13;35.13;;;2.00;99.90;;;;;;5091451;28;20945;-80
2021/11/12 00:15:31;;;;;;;40.03;35.73;;;2.00;99.90;;;;;;5105043;28;20871;-80
2021/11/12 00:17:58;;;;;;;39.90;35.77;;;2.00;99.90;;;;;;5095224;28;20524;-80
2021/11/12 00:20:25;;;;;;;41.10;36.77;;;2.10;99.90;;;;;;5091162;28;20479;-80
2021/11/12 00:22:52;;;;;;;43.87;39.10;;;2.20;99.90;;;;;;5099338;28;20440;-80
2021/11/12 00:25:20;;;;;;;47.20;39.90;;;2.30;99.90;;;;;;5106580;28;20470;-80
2021/11/12 00:27:48;;;;;;;44.87;39.10;;;2.30;99.90;;;;;;5100195;28;20444;-80
2021/11/12 00:30:26;;;;;;;47.87;39.67;;;2.40;99.90;;;;;;5096366;28;20887;-80
2021/11/12 00:33:01;;;;;;;44.30;39.47;;;2.50;99.90;;;;;;5092082;28;20439;-81
2021/11/12 00:35:34;;;;;;;47.27;41.60;;;2.50;99.90;;;;;;5101979;28;20444;-80
2021/11/12 00:38:05;;;;;;;47.03;40.23;;;2.60;99.90;;;;;;5095714;28;20447;-80
2021/11/12 00:40:42;;;;;;;43.47;38.40;;;2.60;99.90;;;;;;5092711;28;20470;-81
2021/11/12 00:43:13;;;;;;;46.43;40.03;;;2.60;99.90;;;;;;5100140;28;20480;-80
2021/11/12 00:45:49;;;;;;;44.23;39.53;;;2.50;99.90;;;;;;5099926;28;20437;-80
2021/11/12 00:48:19;;;;;;;43.13;38.43;;;2.50;99.90;;;;;;5103204;28;20480;-80
2021/11/12 00:51:10;;;;;;;43.27;38.50;;;2.50;99.90;;;;;;5099003;28;21010;-80
2021/11/12 00:53:51;;;;;;;46.33;40.80;;;2.50;99.90;;;;;;5095245;28;20497;-81
2021/11/12 00:56:20;;;;;;;41.27;36.97;;;2.60;99.90;;;;;;5098215;28;20463;-80
2021/11/12 00:58:47;;;;;;;42.10;37.50;;;2.50;99.90;;;;;;5097615;28;20440;-80
2021/11/12 01:01:15;;;;;;;41.17;36.77;;;2.50;99.90;;;;;;5103051;28;20515;-80
2021/11/12 01:03:41;;;;;;;42.07;37.57;;;2.50;99.90;;;;;;5097049;28;20448;-80
2021/11/12 01:06:09;;;;;;;41.47;37.07;;;2.50;99.90;;;;;;5106454;28;20448;-81
2021/11/12 01:08:35;;;;;;;42.53;38.13;;;2.50;99.90;;;;;;5097156;28;20444;-80
2021/11/12 01:11:02;;;;;;;43.07;38.37;;;2.40;99.90;;;;;;5097871;28;20468;-81
2021/11/12 01:13:31;;;;;;;45.70;39.73;;;2.50;99.90;;;;;;5100341;28;20889;-80
2021/11/12 01:15:58;;;;;;;43.73;39.07;;;2.50;99.90;;;;;;5098370;28;20824;-80
2021/11/12 01:18:25;;;;;;;44.30;39.67;;;2.50;99.90;;;;;;5100731;28;21015;-81
2021/11/12 01:20:53;;;;;;;43.20;38.57;;;2.50;99.90;;;;;;5100866;28;20877;-80
2021/11/12 01:23:20;;;;;;;42.97;38.57;;;2.60;99.90;;;;;;5102651;28;20506;-80
2021/11/12 01:25:46;;;;;;;43.67;38.97;;;2.60;99.90;;;;;;5100649;28;20431;-81
2021/11/12 01:28:14;;;;;;;43.13;38.43;;;2.50;99.90;;;;;;5104109;28;20451;-80
2021/11/12 01:30:42;;;;;;;46.13;39.80;;;2.50;99.90;;;;;;5099490;28;20802;-80
2021/11/12 01:33:09;;;;;;;46.60;39.37;;;2.50;99.90;;;;;;5103830;28;20468;-78
2021/11/12 01:35:36;;;;;;;47.20;39.50;;;2.50;99.90;;;;;;5105668;28;20462;-80
2021/11/12 01:38:03;;;;;;;41.10;36.67;;;2.50;99.90;;;;;;5097663;28;20473;-81
2021/11/12 01:40:30;;;;;;;41.20;36.87;;;2.50;99.90;;;;;;5101240;28;20509;-81
2021/11/12 01:43:02;;;;;;;42.20;37.70;;;2.40;99.90;;;;;;5096340;28;20443;-80
2021/11/12 01:45:38;;;;;;;41.97;37.40;;;2.40;99.90;;;;;;5101314;28;20945;-80
2021/11/12 01:50:55;;;;;;;41.83;37.17;;;2.40;99.90;;;;;;5098806;28;20507;-81
2021/11/12 01:53:27;;;;;;;42.77;38.20;;;2.50;99.90;;;;;;5095481;28;20828;-81
2021/11/12 01:56:12;;;;;;;45.97;40.73;;;2.40;99.90;;;;;;5097257;28;20800;-81
2021/11/12 01:58:51;;;;;;;44.60;39.47;;;2.50;99.90;;;;;;5083349;28;20498;-80
2021/11/12 02:01:20;;;;;;;41.73;37.23;;;2.50;99.90;;;;;;5108726;28;20443;-80
2021/11/12 02:03:48;;;;;;;41.97;37.67;;;2.50;99.90;;;;;;5100611;28;20487;-81
2021/11/12 02:06:16;;;;;;;45.50;40.10;;;2.50;99.90;;;;;;5096974;28;20473;-81
2021/11/12 02:08:43;;;;;;;40.67;36.40;;;2.50;99.90;;;;;;5106001;28;20463;-80
2021/11/12 02:11:10;;;;;;;42.63;37.80;;;2.50;99.90;;;;;;5100509;28;20521;-81
2021/11/12 02:13:39;;;;;;;40.03;36.17;;;2.40;99.90;;;;;;5096721;28;20440;-80
2021/11/12 02:16:06;;;;;;;40.63;36.23;;;2.50;99.90;;;;;;5094950;28;20517;-77
2021/11/12 02:18:37;;;;;;;40.50;36.37;;;2.40;99.90;;;;;;5097272;28;20491;-78
2021/11/12 02:21:10;;;;;;;38.53;34.73;;;2.40;99.90;;;;;;5103984;28;20458;-78
2021/11/12 02:23:39;;;;;;;40.87;36.47;;;2.30;99.90;;;;;;5102030;28;20970;-78
2021/11/12 02:26:09;;;;;;;42.37;35.63;;;2.30;99.90;;;;;;5096390;28;20851;-78
2021/11/12 02:28:41;;;;;;;36.77;33.13;;;2.20;99.90;;;;;;5097535;28;20490;-78
2021/11/12 02:31:08;;;;;;;38.43;34.40;;;2.20;99.90;;;;;;5093850;28;20463;-78
2021/11/12 02:33:36;;;;;;;38.27;34.47;;;2.20;99.90;;;;;;5090014;28;20440;-78
2021/11/12 02:36:08;;;;;;;35.93;32.40;;;2.20;99.90;;;;;;5098306;28;20432;-80
2021/11/12 02:38:38;;;;;;;36.73;33.03;;;2.20;99.90;;;;;;5099230;28;20445;-81
2021/11/12 02:41:05;;;;;;;35.87;32.40;;;2.20;99.90;;;;;;5101928;28;20453;-80
2021/11/12 02:43:33;;;;;;;36.03;32.30;;;2.10;99.90;;;;;;5103390;28;20436;-81
2021/11/12 02:46:01;;;;;;;37.13;33.50;;;2.10;99.90;;;;;;5103517;28;20530;-80
2021/11/12 02:48:29;;;;;;;37.90;34.00;;;2.00;99.90;;;;;;5099304;28;21019;-81
2021/11/12 02:50:55;;;;;;;37.30;33.40;;;2.00;99.90;;;;;;5095963;28;20547;-80
2021/11/12 02:53:24;;;;;;;38.03;33.13;;;1.90;99.90;;;;;;5099894;28;20449;-80
2021/11/12 02:55:51;;;;;;;35.47;32.03;;;2.00;99.90;;;;;;5095998;28;20968;-81
2021/11/12 02:58:19;;;;;;;38.10;32.90;;;1.90;99.90;;;;;;5099834;28;20434;-81
2021/11/12 03:00:47;;;;;;;35.10;31.73;;;1.90;99.90;;;;;;5100969;28;20456;-80
2021/11/12 03:03:15;;;;;;;34.20;30.87;;;2.00;99.90;;;;;;5098145;28;20440;-80
2021/11/12 03:05:42;;;;;;;36.33;32.50;;;2.00;99.90;;;;;;5095967;28;20440;-81
2021/11/12 03:08:09;;;;;;;35.23;31.63;;;2.00;99.90;;;;;;5096632;28;20447;-79
2021/11/12 03:10:37;;;;;;;33.33;30.23;;;2.00;99.90;;;;;;5101619;28;20560;-80
2021/11/12 03:13:04;;;;;;;34.33;31.07;;;2.00;99.90;;;;;;5095332;28;20525;-80
2021/11/12 03:15:31;;;;;;;34.13;30.83;;;1.90;99.90;;;;;;5101271;28;20496;-81
2021/11/12 03:17:59;;;;;;;34.20;31.10;;;1.80;99.90;;;;;;5106562;28;20445;-81
2021/11/12 03:20:27;;;;;;;33.57;30.30;;;1.80;99.90;;;;;;5115192;28;20563;-81
2021/11/12 03:22:59;;;;;;;34.67;30.53;;;1.70;99.90;;;;;;5114990;28;20504;-80
2021/11/12 03:25:32;;;;;;;33.27;30.20;;;1.70;99.90;;;;;;5114706;28;20444;-80
2021/11/12 03:28:14;;;;;;;33.63;30.37;;;1.70;99.90;;;;;;5093380;28;21004;-81
2021/11/12 04:04:20;;;;;;;31.33;28.43;;;1.50;99.90;;;;;;5083865;28;20438;-79
2021/11/12 04:06:52;;;;;;;31.87;28.70;;;1.40;99.90;;;;;;5085817;28;20963;-79
2021/11/12 04:20:34;;;;;;;35.00;31.53;;;1.20;99.90;;;;;;5059234;28;21139;-80
2021/11/12 05:10:13;;;;;;;31.23;28.30;;;1.20;99.90;;;;;;5090876;28;20440;-79
2021/11/12 05:33:35;;;;;;;31.70;28.67;;;1.20;99.90;;;;;;5101616;28;20454;-80
2021/11/12 05:51:44;;;;;;;31.00;28.40;;;1.00;99.90;;;;;;5047494;28;20490;-81
2021/11/12 05:56:59;;;;;;;32.00;28.87;;;1.10;99.90;;;;;;5100108;28;20444;-79
2021/11/12 05:59:26;;;;;;;32.57;29.60;;;1.20;99.90;;;;;;5108167;28;20481;-81
2021/11/12 06:01:53;;;;;;;32.27;29.17;;;1.30;99.90;;;;;;5104760;28;20495;-80
2021/11/12 06:04:21;;;;;;;30.87;28.17;;;1.30;99.90;;;;;;5107642;28;20460;-81
2021/11/12 06:06:48;;;;;;;31.23;28.40;;;1.30;99.90;;;;;;5089013;28;20491;-81
2021/11/12 06:09:15;;;;;;;32.87;29.83;;;1.30;99.90;;;;;;5105645;28;20452;-80
2021/11/12 06:11:43;;;;;;;33.37;30.03;;;1.30;99.90;;;;;;5105544;28;20477;-81
2021/11/12 06:14:12;;;;;;;30.23;27.63;;;1.40;99.90;;;;;;5103816;28;20444;-81
2021/11/12 06:16:39;;;;;;;30.83;28.10;;;1.40;99.90;;;;;;5108942;28;20440;-80
2021/11/12 06:19:06;;;;;;;32.20;29.33;;;1.40;99.90;;;;;;5102509;28;20435;-81
2021/11/12 06:21:33;;;;;;;32.20;29.13;;;1.50;99.90;;;;;;5106666;28;20474;-79
2021/11/12 06:24:00;;;;;;;31.53;28.63;;;1.50;99.90;;;;;;5098059;28;20454;-79
2021/11/12 06:26:27;;;;;;;32.83;29.50;;;1.50;99.90;;;;;;5104945;28;20493;-78
2021/11/12 06:28:55;;;;;;;31.50;28.57;;;1.50;99.90;;;;;;5097596;28;20861;-79
2021/11/12 06:31:23;;;;;;;31.10;28.23;;;1.50;99.90;;;;;;5095553;28;20471;-80
2021/11/12 06:33:51;;;;;;;38.00;28.93;;;1.50;99.90;;;;;;5096479;28;20446;-81
2021/11/12 06:36:19;;;;;;;29.40;26.80;;;1.40;99.90;;;;;;5095183;28;20886;-81
2021/11/12 06:38:46;;;;;;;30.87;27.77;;;1.30;99.90;;;;;;5102421;28;20429;-80
2021/11/12 06:41:14;;;;;;;30.37;27.60;;;1.30;99.90;;;;;;5100296;28;20466;-81
2021/11/12 06:43:52;;;;;;;39.47;30.17;;;1.20;99.90;;;;;;5101782;28;21113;-81
2021/11/12 06:49:24;;;;;;;31.33;28.27;;;1.20;99.90;;;;;;5090337;28;20427;-81
2021/11/12 06:51:51;;;;;;;31.10;28.20;;;1.40;99.90;;;;;;5090688;28;20447;-81
2021/11/12 06:54:18;;;;;;;31.03;28.30;;;1.40;99.90;;;;;;5102383;28;20460;-80
2021/11/12 06:56:46;;;;;;;31.03;28.10;;;1.50;99.90;;;;;;5114950;28;20490;-82
2021/11/12 06:59:13;;;;;;;33.57;28.67;;;1.50;99.90;;;;;;5101933;28;20446;-81
2021/11/12 07:01:40;;;;;;;30.50;27.77;;;1.40;99.90;;;;;;5104062;28;20464;-81
2021/11/12 07:04:08;;;;;;;30.33;27.63;;;1.50;99.90;;;;;;5098441;28;20447;-80
2021/11/12 07:06:36;;;;;;;30.77;28.00;;;1.50;99.90;;;;;;5097509;28;20902;-80
2021/11/12 07:09:05;;;;;;;31.30;28.37;;;1.60;99.90;;;;;;5100323;28;20544;-80
2021/11/12 07:11:32;;;;;;;32.27;29.27;;;1.60;99.90;;;;;;5102810;28;20451;-80
2021/11/12 07:13:59;;;;;;;31.47;28.57;;;1.60;99.90;;;;;;5109602;28;20448;-82
2021/11/12 07:16:26;;;;;;;30.97;27.77;;;1.70;99.90;;;;;;5113674;28;20478;-80
2021/11/12 07:18:54;;;;;;;30.53;27.63;;;1.70;99.90;;;;;;5106852;28;20469;-80
2021/11/12 07:21:23;;;;;;;30.03;27.33;;;1.70;99.90;;;;;;5104337;28;20475;-82
2021/11/12 07:23:50;;;;;;;29.90;27.30;;;1.70;99.90;;;;;;5091308;28;20880;-81
2021/11/12 07:26:17;;;;;;;29.60;26.93;;;1.70;99.90;;;;;;5098506;28;20452;-81
2021/11/12 07:28:47;;;;;;;28.47;25.87;;;1.70;99.90;;;;;;5108684;28;20877;-81
2021/11/12 07:31:15;;;;;;;27.83;25.53;;;1.70;99.90;;;;;;5113597;28;20460;-80
2021/11/12 07:33:42;;;;;;;28.60;26.27;;;1.70;99.90;;;;;;5104821;28;20534;-82
2021/11/12 07:36:15;;;;;;;29.80;26.60;;;1.80;99.90;;;;;;5111177;28;20474;-81
2021/11/12 07:38:49;;;;;;;27.70;25.33;;;1.80;99.90;;;;;;5107792;28;20426;-80
2021/11/12 07:41:24;;;;;;;27.70;25.33;;;1.80;99.90;;;;;;5091382;28;20480;-79
2021/11/12 07:44:18;;;;;;;27.13;24.93;;;1.90;99.90;;;;;;5104308;28;20538;-81
2021/11/12 07:46:46;;;;;;;28.53;26.00;;;2.10;99.90;;;;;;5092828;28;20550;-81
2021/11/12 07:49:14;;;;;;;27.70;25.40;;;2.20;99.90;;;;;;5096433;28;20830;-80
2021/11/12 07:51:42;;;;;;;27.60;25.20;;;2.30;99.90;;;;;;5103101;28;20532;-80
2021/11/12 07:54:10;;;;;;;26.23;24.13;;;2.40;99.90;;;;;;5100305;28;20489;-80
2021/11/12 07:56:38;;;;;;;27.13;24.93;;;2.40;99.90;;;;;;5105775;28;20502;-81
2021/11/12 07:59:05;;;;;;;26.87;24.53;;;2.40;99.90;;;;;;5105534;28;20432;-81
2021/11/12 08:01:32;;;;;;;27.10;24.80;;;2.40;99.90;;;;;;5102666;28;20461;-80
2021/11/12 08:04:02;;;;;;;27.40;25.00;;;2.40;99.90;;;;;;5102102;28;20499;-80
2021/11/12 08:06:30;;;;;;;28.80;26.20;;;2.40;99.90;;;;;;5098458;28;20444;-81
2021/11/12 08:09:00;;;;;;;27.40;25.03;;;2.50;99.90;;;;;;5095474;28;20461;-82
2021/11/12 08:11:35;;;;;;;26.93;24.53;;;2.50;99.90;;;;;;5110193;28;20463;-80
2021/11/12 08:14:09;;;;;;;26.13;24.07;;;2.50;99.90;;;;;;5098195;28;20503;-81
2021/11/12 08:16:49;;;;;;;25.93;23.73;;;2.60;99.90;;;;;;5098057;28;20479;-81
2021/11/12 08:19:18;;;;;;;26.57;24.40;;;2.50;99.90;;;;;;5096597;28;20488;-80
2021/11/12 08:21:50;;;;;;;27.13;24.63;;;2.60;99.90;;;;;;5105916;28;20453;-81
2021/11/12 08:24:21;;;;;;;26.90;24.63;;;2.70;99.90;;;;;;5109727;28;20203;-81
2021/11/12 08:27:01;;;;;;;26.83;24.33;;;2.70;99.90;;;;;;5102443;28;20873;-81
2021/11/12 08:29:54;;;;;;;28.90;25.53;;;2.80;99.90;;;;;;5103305;28;20805;-80
2021/11/12 08:32:42;;;;;;;27.07;24.47;;;2.80;99.90;;;;;;5108473;28;21004;-82
2021/11/12 08:35:31;;;;;;;24.20;22.10;;;2.80;99.90;;;;;;5100204;28;20473;-81
2021/11/12 08:38:06;;;;;;;24.13;21.87;;;2.80;99.90;;;;;;5086647;28;20443;-81
2021/11/12 08:40:43;;;;;;;24.77;22.33;;;2.90;99.90;;;;;;5095847;28;20217;-82
2021/11/12 08:43:15;;;;;;;24.60;22.20;;;2.90;99.90;;;;;;5096417;28;20451;-81
2021/11/12 08:45:44;;;;;;;25.33;22.57;;;2.80;99.90;;;;;;5096890;28;20477;-80
2021/11/12 08:48:14;;;;;;;24.33;22.00;;;2.90;99.90;;;;;;5099635;28;20999;-81
2021/11/12 08:50:42;;;;;;;24.17;22.07;;;2.90;99.90;;;;;;5105402;28;20228;-81
2021/11/12 08:53:10;;;;;;;28.13;25.73;;;3.00;99.90;;;;;;5100324;28;20515;-81
2021/11/12 08:55:38;;;;;;;25.40;23.00;;;3.00;99.90;;;;;;5097960;28;20709;-80
2021/11/12 08:58:07;;;;;;;27.33;24.80;;;3.30;99.90;;;;;;5095963;28;20464;-80
2021/11/12 09:00:37;;;;;;;21.97;19.10;;;3.40;99.90;;;;;;5101516;28;20490;-80
2021/11/12 09:03:04;;;;;;;23.43;20.93;;;3.30;99.90;;;;;;5103720;28;20439;-81
2021/11/12 09:05:32;;;;;;;28.87;26.03;;;3.30;99.90;;;;;;5101020;28;20197;-80
2021/11/12 09:07:59;;;;;;;27.43;24.93;;;3.30;99.90;;;;;;5109556;28;20798;-80
2021/11/12 09:10:27;;;;;;;20.87;18.37;;;3.40;99.90;;;;;;5097794;28;20214;-80
2021/11/12 09:12:58;;;;;;;25.87;23.47;;;3.60;99.90;;;;;;5104959;28;20557;-80
2021/11/12 09:15:26;;;;;;;26.53;24.23;;;3.70;99.90;;;;;;5100343;28;20463;-80
2021/11/12 09:17:55;;;;;;;27.97;25.20;;;3.90;99.90;;;;;;5099874;28;20568;-80
2021/11/12 09:20:23;;;;;;;28.17;25.27;;;4.00;99.90;;;;;;5093212;28;20561;-80
2021/11/12 09:22:51;;;;;;;28.47;25.73;;;4.10;99.90;;;;;;5091708;28;20229;-80
2021/11/12 09:25:19;;;;;;;27.77;25.03;;;4.20;99.90;;;;;;5111494;28;20264;-81
2021/11/12 09:27:46;;;;;;;30.47;27.37;;;4.20;99.90;;;;;;5101389;28;20193;-82
2021/11/12 09:30:16;;;;;;;30.30;27.13;;;4.20;99.90;;;;;;5104675;28;20213;-80
2021/11/12 09:32:42;;;;;;;30.57;27.40;;;4.30;99.90;;;;;;5105775;28;20198;-81
2021/11/12 09:35:11;;;;;;;29.40;26.40;;;4.30;99.90;;;;;;5099658;28;20178;-81
2021/11/12 09:37:38;;;;;;;30.20;27.03;;;4.30;99.90;;;;;;5098117;28;20219;-81
2021/11/12 09:40:06;;;;;;;29.90;27.10;;;4.40;99.90;;;;;;5096216;28;20213;-81
2021/11/12 09:42:36;;;;;;;31.57;28.47;;;4.50;99.90;;;;;;5101479;28;20277;-80
2021/11/12 09:45:05;;;;;;;31.33;27.17;;;4.40;99.90;;;;;;5107859;28;20230;-80
2021/11/12 09:47:32;;;;;;;30.70;27.50;;;4.50;99.90;;;;;;5100929;28;20195;-81
2021/11/12 09:50:01;;;;;;;30.27;27.47;;;4.50;99.90;;;;;;5106108;28;20225;-81
2021/11/12 09:52:31;;;;;;;30.33;27.43;;;4.50;99.90;;;;;;5101884;28;20190;-81
2021/11/12 09:54:58;;;;;;;29.47;26.53;;;4.50;99.90;;;;;;5101625;28;20229;-80
2021/11/12 09:57:26;;;;;;;29.43;26.47;;;4.50;99.90;;;;;;5083525;28;20309;-81
2021/11/12 09:59:56;;;;;;;29.70;26.73;;;4.60;99.90;;;;;;5102547;28;20262;-80
2021/11/12 10:02:23;;;;;;;27.07;24.57;;;4.70;99.90;;;;;;5099661;28;20198;-80
2021/11/12 10:04:50;;;;;;;29.87;26.77;;;4.90;99.90;;;;;;5100683;28;20214;-81
2021/11/12 10:07:18;;;;;;;28.30;25.67;;;4.90;99.90;;;;;;5100252;28;20239;-81
2021/11/12 10:10:00;;;;;;;28.17;25.57;;;5.00;99.90;;;;;;5100360;28;20638;-82
2021/11/12 10:12:35;;;;;;;28.00;25.50;;;5.00;99.90;;;;;;5108581;28;20219;-81
2021/11/12 10:15:11;;;;;;;29.20;26.30;;;4.90;99.90;;;;;;5104778;28;20189;-81
2021/11/12 10:17:38;;;;;;;27.83;25.23;;;4.90;99.90;;;;;;5100848;28;20225;-81
2021/11/12 10:20:09;;;;;;;27.60;24.97;;;4.90;99.90;;;;;;5098961;28;20213;-79
2021/11/12 10:22:38;;;;;;;28.70;25.97;;;5.00;99.90;;;;;;5104063;28;20267;-81
2021/11/12 10:25:09;;;;;;;27.30;24.90;;;5.10;99.90;;;;;;5106214;28;20220;-80
2021/11/12 10:27:37;;;;;;;30.40;27.47;;;5.30;99.90;;;;;;5096894;28;20580;-82
2021/11/12 10:30:13;;;;;;;29.43;26.43;;;5.30;99.90;;;;;;5107347;28;20205;-81
2021/11/12 10:32:41;;;;;;;30.93;27.87;;;5.50;99.90;;;;;;5105780;28;20204;-81
2021/11/12 10:35:19;;;;;;;30.43;27.33;;;5.70;99.90;;;;;;5102205;28;20190;-81
2021/11/12 10:37:46;;;;;;;29.63;26.43;;;5.80;99.90;;;;;;5107707;28;20218;-81
2021/11/12 10:40:17;;;;;;;28.73;25.93;;;5.80;99.90;;;;;;5104313;28;20213;-81
2021/11/12 10:42:46;;;;;;;29.17;26.47;;;6.00;99.90;;;;;;5107594;28;20201;-80
2021/11/12 10:45:15;;;;;;;30.93;27.73;;;6.10;99.90;;;;;;5101827;28;20639;-81
2021/11/12 10:47:47;;;;;;;30.63;27.60;;;6.10;99.90;;;;;;5103517;28;20195;-81
2021/11/12 10:50:16;;;;;;;31.37;28.33;;;6.10;99.90;;;;;;5103407;28;20264;-82
2021/11/12 10:52:43;;;;;;;32.30;29.30;;;6.10;99.90;;;;;;5106803;28;20194;-80
2021/11/12 10:55:14;;;;;;;29.13;26.47;;;6.10;99.90;;;;;;5100183;28;20202;-80
2021/11/12 10:57:48;;;;;;;29.40;26.70;;;6.20;99.90;;;;;;5104191;28;20217;-81
2021/11/12 11:00:23;;;;;;;29.23;26.47;;;6.20;99.90;;;;;;5106005;28;20220;-81
2021/11/12 11:02:51;;;;;;;28.57;25.80;;;6.20;99.90;;;;;;5102735;28;20185;-80
2021/11/12 11:05:21;;;;;;;29.77;26.90;;;6.20;99.90;;;;;;5103659;28;20199;-83
2021/11/12 11:07:49;;;;;;;28.70;25.90;;;6.20;99.90;;;;;;5110720;28;20173;-80
2021/11/12 11:10:23;;;;;;;29.00;25.83;;;6.10;99.90;;;;;;5108045;28;20217;-82
2021/11/12 11:12:52;;;;;;;28.33;25.40;;;6.10;99.90;;;;;;5097478;28;20198;-81
2021/11/12 11:15:30;;;;;;;26.87;24.47;;;6.20;99.90;;;;;;5110482;28;20246;-80
2021/11/12 11:18:07;;;;;;;25.90;23.57;;;6.20;99.90;;;;;;5088560;28;20220;-82
2021/11/12 11:20:35;;;;;;;27.67;25.17;;;6.20;99.90;;;;;;5093605;28;20222;-81
2021/11/12 11:23:02;;;;;;;26.83;24.30;;;6.20;99.90;;;;;;5101104;28;20758;-82
2021/11/12 11:25:31;;;;;;;28.33;25.73;;;6.30;99.90;;;;;;5099891;28;20544;-82
2021/11/12 11:28:02;;;;;;;27.00;24.50;;;6.20;99.90;;;;;;5098206;28;20188;-81
2021/11/12 11:30:29;;;;;;;26.37;23.93;;;6.10;99.90;;;;;;5098771;28;20222;-80
2021/11/12 11:32:56;;;;;;;26.23;23.83;;;6.10;99.90;;;;;;5093575;28;20252;-81
2021/11/12 11:35:24;;;;;;;27.37;24.80;;;6.20;99.90;;;;;;5099216;28;20208;-81
2021/11/12 11:37:53;;;;;;;26.87;24.37;;;6.20;99.90;;;;;;5087858;28;20257;-81
2021/11/12 11:40:21;;;;;;;26.50;24.07;;;6.20;99.90;;;;;;5108791;28;20248;-80
2021/11/12 11:42:48;;;;;;;26.00;23.60;;;6.30;99.90;;;;;;5109211;28;20255;-81
2021/11/12 11:45:17;;;;;;;27.20;24.70;;;6.30;99.90;;;;;;5101260;28;20205;-80
2021/11/12 11:47:45;;;;;;;27.57;24.73;;;6.40;99.90;;;;;;5107699;28;20198;-82
2021/11/12 11:50:24;;;;;;;27.17;24.77;;;6.40;99.90;;;;;;5098476;28;20225;-81
2021/11/12 11:52:51;;;;;;;27.90;25.33;;;6.30;99.90;;;;;;5093845;28;20603;-81
2021/11/12 11:55:36;;;;;;;26.60;24.23;;;6.40;99.90;;;;;;5104101;28;20206;-81
2021/11/12 11:58:36;;;;;;;26.73;24.33;;;6.40;99.90;;;;;;5099092;28;20711;-82
2021/11/12 12:01:34;;;;;;;27.77;25.07;;;6.30;99.90;;;;;;5095626;28;20259;-81
2021/11/12 12:04:32;;;;;;;28.57;25.87;;;6.30;99.90;;;;;;5093507;28;20669;-79
2021/11/12 12:07:30;;;;;;;30.60;27.73;;;6.30;99.90;;;;;;5096667;28;20194;-82
2021/11/12 12:10:00;;;;;;;29.97;27.27;;;6.30;99.90;;;;;;5089562;28;20221;-81
2021/11/12 12:12:49;;;;;;;30.17;27.43;;;6.10;99.90;;;;;;5095858;28;20203;-82
2021/11/12 12:15:37;;;;;;;29.23;26.37;;;6.00;99.90;;;;;;5101699;28;20198;-80
2021/11/12 12:18:21;;;;;;;28.37;25.77;;;6.10;99.90;;;;;;5093690;28;20648;-80
2021/11/12 12:21:38;;;;;;;28.17;25.57;;;6.10;99.90;;;;;;5101623;28;20219;-82
2021/11/12 13:23:27;;;;;;;32.80;29.60;;;7.10;99.90;;;;;;5098203;28;20198;-82
2021/11/12 13:25:59;;;;;;;32.77;29.53;;;7.10;99.90;;;;;;5106620;28;20202;-81
2021/11/12 13:28:28;;;;;;;31.97;28.77;;;7.10;99.90;;;;;;5087941;28;20183;-81
2021/11/12 13:31:00;;;;;;;30.00;27.27;;;7.20;99.90;;;;;;5100238;28;20213;-81
2021/11/12 13:33:31;;;;;;;32.33;29.33;;;7.20;99.90;;;;;;5093770;28;20253;-81
2021/11/12 13:36:01;;;;;;;31.63;28.70;;;7.30;99.90;;;;;;5099529;28;20429;-81
2021/11/12 13:38:36;;;;;;;29.90;27.20;;;7.30;99.90;;;;;;5100901;28;20224;-82
2021/11/12 13:41:07;;;;;;;30.13;27.30;;;7.40;99.90;;;;;;5104455;28;20311;-81
2021/11/12 13:43:37;;;;;;;28.77;26.27;;;7.50;99.90;;;;;;5108669;28;20193;-80
2021/11/12 13:46:04;;;;;;;28.27;25.67;;;7.60;99.90;;;;;;5109729;28;20212;-81
2021/11/12 13:48:42;;;;;;;28.47;25.77;;;7.70;99.90;;;;;;5108319;28;20255;-80
2021/11/12 13:51:09;;;;;;;30.03;27.33;;;7.70;99.90;;;;;;5101715;28;20223;-81
2021/11/12 13:53:37;;;;;;;28.40;25.87;;;7.80;99.90;;;;;;5098569;28;20613;-81
2021/11/12 13:56:10;;;;;;;28.03;25.47;;;7.80;99.90;;;;;;5106775;28;20206;-81
2021/11/12 13:58:39;;;;;;;28.43;25.60;;;7.80;99.90;;;;;;5107447;28;20220;-81
2021/11/12 14:01:16;;;;;;;26.27;23.97;;;7.80;99.90;;;;;;5103132;28;20260;-81
2021/11/12 14:03:43;;;;;;;28.07;25.53;;;7.80;99.90;;;;;;5096266;28;20217;-81
2021/11/12 14:06:11;;;;;;;31.27;28.37;;;7.80;99.90;;;;;;5084714;28;20204;-81
2021/11/12 14:08:40;;;;;;;29.57;26.77;;;7.80;99.90;;;;;;5091637;28;20640;-82
2021/11/12 14:11:19;;;;;;;32.73;29.43;;;7.90;99.90;;;;;;5105554;28;20235;-84
2021/11/12 14:13:47;;;;;;;30.47;27.50;;;7.90;99.90;;;;;;5119571;28;20239;-80
2021/11/12 14:16:17;;;;;;;31.67;28.67;;;7.80;99.90;;;;;;5104678;28;20215;-80
2021/11/12 14:19:37;;;;;;;33.43;30.03;;;7.90;99.90;;;;;;5099738;28;20504;-80
2021/11/12 14:22:06;;;;;;;31.83;28.83;;;7.80;99.90;;;;;;5083585;28;20231;-80
2021/11/12 14:24:44;;;;;;;34.70;31.30;;;7.80;99.90;;;;;;5091355;28;20210;-80
2021/11/12 14:27:26;;;;;;;31.70;28.60;;;7.70;99.90;;;;;;5105692;28;20203;-80
2021/11/12 14:30:19;;;;;;;33.83;30.50;;;7.70;99.90;;;;;;5094293;28;20312;-81
2021/11/12 14:32:58;;;;;;;33.40;30.23;;;7.70;99.90;;;;;;5094695;28;20192;-82
2021/11/12 14:35:34;;;;;;;32.63;29.60;;;7.70;99.90;;;;;;5088707;28;20248;-81
2021/11/12 14:38:11;;;;;;;34.10;30.80;;;7.60;99.90;;;;;;5096888;28;20215;-80
2021/11/12 14:43:39;;;;;;;33.43;30.03;;;7.60;99.90;;;;;;5084342;28;20203;-80
2021/11/12 14:46:13;;;;;;;34.07;30.00;;;7.50;99.90;;;;;;5099292;28;20626;-80
2021/11/12 14:48:47;;;;;;;30.83;27.83;;;7.50;99.90;;;;;;5109958;28;20208;-81
2021/11/12 14:51:17;;;;;;;30.67;27.77;;;7.50;99.90;;;;;;5088446;28;20246;-81
2021/11/12 14:53:50;;;;;;;31.00;28.03;;;7.50;99.90;;;;;;5110184;28;20209;-81
2021/11/12 14:56:20;;;;;;;31.20;28.17;;;7.40;99.90;;;;;;5096381;28;20227;-81
2021/11/12 14:58:55;;;;;;;32.23;29.10;;;7.40;99.90;;;;;;5077152;28;20214;-81
2021/11/12 15:01:24;;;;;;;32.60;29.30;;;7.40;99.90;;;;;;5089981;28;20246;-80
2021/11/12 15:03:52;;;;;;;32.80;29.57;;;7.30;99.90;;;;;;5083093;28;20199;-82
2021/11/12 15:06:21;;;;;;;35.60;32.10;;;7.30;99.90;;;;;;5079657;28;20290;-80
2021/11/12 15:08:51;;;;;;;32.97;29.77;;;7.20;99.90;;;;;;5080673;28;20198;-81
2021/11/12 15:11:21;;;;;;;36.60;32.77;;;7.20;99.90;;;;;;5101808;28;20225;-81
2021/11/12 15:13:51;;;;;;;38.03;34.13;;;7.10;99.90;;;;;;5082887;28;20239;-80
2021/11/12 15:16:20;;;;;;;37.73;33.67;;;7.00;99.90;;;;;;5094154;28;20205;-80
2021/11/12 15:18:47;;;;;;;37.23;33.43;;;6.90;99.90;;;;;;5105924;28;20245;-82
2021/11/12 15:21:16;;;;;;;40.87;35.80;;;6.80;99.90;;;;;;5084663;28;20215;-80
2021/11/12 15:23:59;;;;;;;37.97;34.03;;;6.80;99.90;;;;;;5094069;28;20206;-84
2021/11/12 15:26:35;;;;;;;39.00;34.23;;;6.70;99.90;;;;;;5086138;28;20196;-81
2021/11/12 15:29:08;;;;;;;37.63;33.83;;;6.70;99.90;;;;;;5099776;28;20234;-81
2021/11/12 15:31:38;;;;;;;41.37;36.97;;;6.60;99.90;;;;;;5088044;28;20219;-81
2021/11/12 15:34:07;;;;;;;39.77;35.47;;;6.60;99.90;;;;;;5101078;28;20193;-80
2021/11/12 15:36:41;;;;;;;41.23;35.90;;;6.60;99.90;;;;;;5095791;28;20206;-80
2021/11/12 15:39:10;;;;;;;41.17;36.00;;;6.50;99.90;;;;;;5101349;28;20213;-80
2021/11/12 15:44:25;;;;;;;39.40;35.20;;;6.40;99.90;;;;;;5094838;28;20196;-80
2021/11/12 15:46:57;;;;;;;37.13;33.40;;;6.40;99.90;;;;;;5108897;27;20642;-80
2021/11/12 15:49:24;;;;;;;40.53;36.20;;;6.30;99.90;;;;;;5092329;28;20205;-80
2021/11/12 15:51:58;;;;;;;40.47;35.07;;;6.30;99.90;;;;;;5088630;28;20268;-81
2021/11/12 15:54:45;;;;;;;39.87;35.50;;;6.20;99.90;;;;;;5089147;28;20578;-81
2021/11/12 16:00:19;;;;;;;45.20;39.20;;;6.10;99.90;;;;;;5079766;28;20207;-80
2021/11/12 16:03:02;;;;;;;51.67;40.47;;;6.10;99.90;;;;;;5104329;28;20198;-79
2021/11/12 16:05:46;;;;;;;44.47;39.00;;;6.00;99.90;;;;;;5082725;28;20198;-81
2021/11/12 16:08:21;;;;;;;44.93;38.00;;;6.00;99.90;;;;;;5082897;28;20563;-82
2021/11/12 16:13:37;;;;;;;42.47;36.77;;;5.90;99.90;;;;;;5092011;28;20199;-80
2021/11/12 16:19:12;;;;;;;44.83;37.90;;;5.70;99.90;;;;;;5013903;28;20353;-78
2021/11/12 16:24:46;;;;;;;49.77;39.80;;;5.50;99.90;;;;;;5052334;28;20277;-81
2021/11/12 16:27:13;;;;;;;53.70;42.53;;;5.40;99.90;;;;;;5091468;28;20237;-81
2021/11/12 16:29:42;;;;;;;50.33;41.27;;;5.30;99.90;;;;;;5103296;28;20259;-81
2021/11/12 16:32:19;;;;;;;52.37;41.50;;;5.20;99.90;;;;;;5099426;28;20216;-81
2021/11/12 16:34:48;;;;;;;54.80;41.70;;;5.20;99.90;;;;;;5096321;28;20200;-80
2021/11/12 16:37:18;;;;;;;53.87;41.83;;;5.10;99.90;;;;;;5095088;28;20667;-82
2021/11/12 16:39:48;;;;;;;51.67;41.57;;;5.00;99.90;;;;;;5088639;28;20229;-81
2021/11/12 16:42:28;;;;;;;56.20;44.00;;;4.80;99.90;;;;;;5092106;28;20205;-83